createdAt,value
2023-01-05T00:01:23.055Z,59.71
2023-01-05T00:06:23.564Z,59.71
2023-01-05T00:11:40.751Z,59.75
2023-01-05T00:16:52.724Z,59.73
2023-01-05T00:22:05.153Z,59.98
2023-01-05T00:26:59.021Z,60.17
2023-01-05T00:31:53.170Z,60.19
2023-01-05T00:36:47.872Z,60.07
2023-01-05T00:41:40.734Z,60.14
2023-01-05T00:46:34.256Z,60.17
2023-01-05T00:51:27.478Z,60.18
2023-01-05T00:56:20.486Z,60.34
2023-01-05T01:01:14.895Z,60.38
2023-01-05T01:06:08.281Z,60.36
2023-01-05T01:11:06.291Z,60.41
2023-01-05T01:15:58.537Z,60.61
2023-01-05T01:20:52.122Z,60.45
2023-01-05T01:25:45.789Z,60.39
2023-01-05T01:30:39.919Z,60.40
2023-01-05T01:35:33.933Z,60.28
2023-01-05T01:40:27.178Z,60.37
2023-01-05T01:45:22.473Z,60.33
2023-01-05T01:50:23.348Z,60.55
2023-01-05T01:55:20.200Z,60.49
2023-01-05T02:00:15.318Z,60.59
2023-01-05T02:05:13.732Z,60.65
2023-01-05T02:10:08.338Z,60.50
2023-01-05T02:15:30.225Z,60.70
2023-01-05T02:21:00.117Z,60.63
2023-01-05T02:26:13.140Z,60.66
2023-01-05T02:31:25.610Z,60.72
2023-01-05T02:36:33.445Z,60.83
2023-01-05T02:41:34.700Z,60.23
2023-01-05T02:46:30.453Z,60.75
2023-01-05T02:51:31.280Z,60.74
2023-01-05T02:56:32.264Z,60.63
2023-01-05T03:01:50.293Z,60.60
2023-01-05T03:07:00.482Z,60.55
2023-01-05T03:12:39.255Z,60.59
2023-01-05T03:17:40.836Z,60.53
2023-01-05T03:22:56.105Z,60.74
2023-01-05T03:28:08.158Z,60.65
2023-01-05T03:33:42.209Z,60.53
2023-01-05T03:38:46.146Z,60.64
2023-01-05T03:43:41.406Z,60.73
2023-01-05T03:48:35.279Z,60.45
2023-01-05T03:53:28.979Z,60.68
2023-01-05T03:58:22.474Z,60.64
2023-01-05T04:03:16.855Z,60.68
2023-01-05T04:08:10.079Z,60.58
2023-01-05T04:13:04.170Z,60.52
2023-01-05T04:17:59.208Z,60.66
2023-01-05T04:22:52.828Z,60.74
2023-01-05T04:27:48.291Z,60.77
2023-01-05T04:32:43.163Z,60.58
2023-01-05T04:37:40.143Z,60.81
2023-01-05T04:42:35.145Z,60.85
2023-01-05T04:47:28.860Z,60.69
2023-01-05T04:52:25.997Z,60.70
2023-01-05T04:57:19.839Z,60.61
2023-01-05T05:02:14.951Z,60.54
2023-01-05T05:07:10.506Z,60.71
2023-01-05T05:12:04.818Z,60.51
2023-01-05T05:17:01.133Z,60.57
2023-01-05T05:21:56.618Z,60.66
2023-01-05T05:26:53.487Z,60.33
2023-01-05T05:31:46.721Z,60.29
2023-01-05T05:36:40.723Z,60.54
2023-01-05T05:41:33.415Z,60.46
2023-01-05T05:46:27.647Z,60.42
2023-01-05T05:51:21.160Z,60.38
2023-01-05T05:56:14.573Z,60.41
2023-01-05T06:01:07.799Z,60.45
2023-01-05T06:06:03.987Z,60.58
2023-01-05T06:10:58.506Z,60.66
2023-01-05T06:15:52.228Z,60.29
2023-01-05T06:20:46.003Z,60.32
2023-01-05T06:25:39.273Z,60.30
2023-01-05T06:30:32.947Z,60.15
2023-01-05T06:35:27.284Z,59.98
2023-01-05T06:40:21.164Z,60.01
2023-01-05T06:45:15.889Z,60.16
2023-01-05T06:50:10.854Z,59.98
2023-01-05T06:55:12.115Z,59.94
2023-01-05T07:00:09.213Z,60.09
2023-01-05T07:05:02.827Z,59.79
2023-01-05T07:09:56.146Z,60.16
2023-01-05T07:14:52.984Z,59.82
2023-01-05T07:19:51.393Z,60.00
2023-01-05T07:24:44.604Z,59.75
2023-01-05T07:29:38.457Z,59.59
2023-01-05T07:34:32.074Z,59.62
2023-01-05T07:39:25.552Z,59.69
2023-01-05T07:44:18.955Z,59.54
2023-01-05T07:49:12.584Z,59.31
2023-01-05T07:54:06.067Z,59.49
2023-01-05T07:59:00.570Z,59.47
2023-01-05T08:03:54.134Z,59.45
2023-01-05T08:08:48.118Z,59.38
2023-01-05T08:13:59.977Z,59.68
2023-01-05T08:18:53.241Z,59.47
2023-01-05T08:23:46.320Z,59.32
2023-01-05T08:28:39.786Z,59.52
2023-01-05T08:33:33.401Z,58.94
2023-01-05T08:38:27.122Z,58.50
2023-01-05T08:43:20.844Z,58.64
2023-01-05T08:48:14.377Z,58.39
2023-01-05T08:53:07.660Z,58.15
2023-01-05T08:58:01.787Z,58.13
2023-01-05T09:02:56.197Z,57.92
2023-01-05T09:07:49.398Z,57.74
2023-01-05T09:12:43.328Z,57.23
2023-01-05T09:17:37.768Z,56.88
2023-01-05T09:22:36.578Z,56.65
2023-01-05T09:27:30.477Z,56.58
2023-01-05T09:32:24.835Z,56.39
2023-01-05T09:37:18.914Z,56.04
2023-01-05T09:42:18.401Z,56.04
2023-01-05T09:47:43.752Z,55.75
2023-01-05T09:52:41.964Z,55.51
2023-01-05T09:57:35.261Z,55.75
2023-01-05T10:02:34.542Z,55.52
2023-01-05T10:07:43.843Z,55.44
2023-01-05T10:13:00.381Z,55.84
2023-01-05T10:17:53.993Z,55.54
2023-01-05T10:22:57.387Z,55.48
2023-01-05T10:28:02.577Z,55.29
2023-01-05T10:33:27.846Z,55.37
2023-01-05T10:39:04.888Z,55.49
2023-01-05T10:44:12.689Z,55.69
2023-01-05T10:49:07.911Z,55.78
2023-01-05T10:54:03.984Z,55.56
2023-01-05T10:59:15.854Z,55.73
2023-01-05T11:04:35.836Z,55.86
2023-01-05T11:09:29.961Z,56.02
2023-01-05T11:14:25.633Z,55.93
2023-01-05T11:19:26.504Z,56.03
2023-01-05T11:24:25.323Z,55.98
2023-01-05T11:29:19.740Z,56.04
2023-01-05T11:34:28.120Z,56.00
2023-01-05T11:39:29.568Z,55.86
2023-01-05T11:44:23.564Z,55.66
2023-01-05T11:49:20.190Z,56.16
2023-01-05T11:54:37.193Z,56.62
2023-01-05T11:59:31.048Z,56.83
2023-01-05T12:04:47.194Z,57.13
2023-01-05T12:09:45.579Z,58.10
2023-01-05T12:14:47.397Z,58.27
2023-01-05T12:20:02.671Z,58.80
2023-01-05T12:25:17.448Z,58.93
2023-01-05T12:36:00.790Z,60.00
2023-01-05T12:41:09.500Z,60.56
2023-01-05T12:46:14.174Z,60.31
2023-01-05T12:51:33.118Z,60.13
2023-01-05T12:56:44.046Z,60.48
2023-01-05T13:01:44.829Z,60.08
2023-01-05T13:06:43.635Z,60.23
2023-01-05T13:11:44.243Z,60.21
2023-01-05T13:16:47.664Z,60.13
2023-01-05T13:21:43.661Z,60.02
2023-01-05T13:26:38.372Z,60.33
2023-01-05T13:32:18.034Z,59.99
2023-01-05T13:37:20.790Z,57.80
2023-01-05T13:42:24.878Z,57.23
2023-01-05T13:47:56.465Z,56.17
2023-01-05T13:52:56.276Z,56.24
2023-01-05T13:57:50.428Z,56.60
2023-01-05T14:02:47.405Z,57.11
2023-01-05T14:07:41.998Z,56.91
2023-01-05T14:12:57.978Z,57.16
2023-01-05T14:18:02.967Z,57.29
2023-01-05T14:22:56.855Z,57.32
2023-01-05T14:28:19.175Z,57.38
2023-01-05T14:33:12.502Z,57.27
2023-01-05T14:38:16.434Z,57.52
2023-01-05T14:43:31.931Z,57.61
2023-01-05T14:48:32.126Z,57.72
2023-01-05T14:53:38.603Z,57.83
2023-01-05T14:58:37.553Z,57.75
2023-01-05T15:03:51.049Z,57.72
2023-01-05T15:09:05.456Z,57.76
2023-01-05T15:14:50.111Z,57.72
2023-01-05T15:19:46.098Z,57.76
2023-01-05T15:24:54.253Z,57.74
2023-01-05T15:30:14.004Z,57.75
2023-01-05T15:35:24.407Z,57.61
2023-01-05T15:40:23.464Z,57.66
2023-01-05T15:45:40.307Z,57.55
2023-01-05T15:50:46.814Z,57.57
2023-01-05T15:55:44.976Z,57.67
2023-01-05T16:00:38.682Z,57.68
2023-01-05T16:05:36.090Z,57.46
2023-01-05T16:10:43.118Z,57.42
2023-01-05T16:15:37.482Z,57.18
2023-01-05T16:20:32.015Z,57.22
2023-01-05T16:25:28.080Z,57.20
2023-01-05T16:30:31.745Z,57.09
2023-01-05T16:35:45.434Z,56.95
2023-01-05T16:40:47.819Z,57.04
2023-01-05T16:45:41.403Z,57.03
2023-01-05T16:50:36.869Z,57.10
2023-01-05T16:55:30.395Z,57.11
2023-01-05T17:00:26.691Z,57.21
2023-01-05T17:05:25.266Z,57.11
2023-01-05T17:10:22.759Z,57.26
2023-01-05T17:15:26.132Z,57.18
2023-01-05T17:20:20.141Z,57.19
2023-01-05T17:25:14.581Z,57.19
2023-01-05T17:30:27.942Z,57.19
2023-01-05T17:35:21.911Z,57.25
2023-01-05T17:40:22.337Z,57.37
2023-01-05T17:45:17.434Z,57.32
2023-01-05T17:55:24.172Z,57.40
2023-01-05T18:00:22.040Z,57.29
2023-01-05T18:05:16.527Z,57.11
2023-01-05T18:10:13.921Z,57.26
2023-01-05T18:15:10.258Z,57.21
2023-01-05T18:20:04.524Z,57.18
2023-01-05T18:24:58.314Z,57.19
2023-01-05T18:29:51.951Z,57.18
2023-01-05T18:34:45.687Z,57.64
2023-01-05T18:39:39.822Z,56.93
2023-01-05T18:44:33.775Z,56.12
2023-01-05T18:49:28.620Z,55.97
2023-01-05T18:54:22.365Z,56.62
2023-01-05T18:59:16.260Z,57.17
2023-01-05T19:04:11.888Z,57.72
2023-01-05T19:09:06.511Z,57.69
2023-01-05T19:14:01.556Z,57.93
2023-01-05T19:18:57.263Z,57.96
2023-01-05T19:23:56.974Z,57.96
2023-01-05T19:28:55.179Z,57.66
2023-01-05T19:33:48.239Z,57.75
2023-01-05T19:38:43.591Z,57.54
2023-01-05T19:43:37.264Z,57.58
2023-01-05T19:48:34.754Z,57.41
2023-01-05T19:53:28.326Z,57.59
2023-01-05T19:58:21.572Z,57.54
2023-01-05T20:03:16.212Z,57.52
2023-01-05T20:08:16.685Z,57.56
2023-01-05T20:13:10.958Z,57.71
2023-01-05T20:18:05.290Z,57.70
2023-01-05T20:22:59.304Z,58.08
2023-01-05T20:27:52.867Z,58.12
2023-01-05T20:32:53.869Z,58.32
2023-01-05T20:37:47.183Z,58.50
2023-01-05T20:42:47.530Z,58.62
2023-01-05T20:47:47.484Z,58.73
2023-01-05T20:52:41.764Z,58.53
2023-01-05T20:57:36.636Z,58.47
2023-01-05T21:02:30.826Z,58.72
2023-01-05T21:07:24.437Z,59.12
2023-01-05T21:12:17.617Z,59.07
2023-01-05T21:17:12.373Z,59.05
2023-01-05T21:22:05.096Z,59.19
2023-01-05T21:26:58.796Z,59.17
2023-01-05T21:31:56.240Z,59.79
2023-01-05T21:36:49.825Z,60.11
2023-01-05T21:42:01.743Z,60.85
2023-01-05T21:46:55.250Z,61.01
2023-01-05T21:52:07.919Z,60.88
2023-01-05T21:57:01.849Z,61.69
2023-01-05T22:01:55.086Z,61.75
2023-01-05T22:06:49.393Z,62.05
2023-01-05T22:11:43.276Z,61.14
2023-01-05T22:16:36.897Z,61.30
2023-01-05T22:21:31.163Z,61.27
2023-01-05T22:26:25.645Z,61.70
2023-01-05T22:31:21.235Z,61.79
2023-01-05T22:36:20.460Z,62.23
2023-01-05T22:41:16.261Z,62.31
2023-01-05T22:46:13.365Z,62.50
2023-01-05T22:51:10.188Z,62.52
2023-01-05T22:56:04.175Z,62.33
2023-01-05T23:01:07.383Z,62.66
2023-01-05T23:06:00.469Z,63.07
2023-01-05T23:11:26.146Z,63.04
2023-01-05T23:16:19.621Z,63.21
2023-01-05T23:21:15.786Z,63.19
2023-01-05T23:26:10.000Z,63.28
2023-01-05T23:31:03.764Z,63.32
2023-01-05T23:35:57.038Z,63.41
2023-01-05T23:41:10.919Z,63.51
2023-01-05T23:46:11.385Z,63.62
2023-01-05T23:51:17.620Z,63.81
2023-01-05T23:56:23.481Z,63.83
